Terminal Aerodrome Forecast
Issued by NWS Blacksburg, VA

Current Version | Previous Version | Graphics & Text | Print | Product List | Glossary On
Versions: 1 2 3 4 5 6 7 8 9 10 11 12 13 14 15 16 17 18 19 20 21 22 23 24 25 26 27 28 29 30 31 32 33 34 35 36 37 38 39 40 41 42 43
000
FTUS41 KRNK 220916 AAB
TAFBLF
TAF AMD
KBLF 220916Z 2209/2306 VRB03KT P6SM -RA SCT009 BKN012 OVC026
     FM221200 30010G20KT P6SM SCT012 OVC020
     FM222000 30010G20KT P6SM SCT020 OVC040
     FM230100 31008KT P6SM BKN050=

USA.gov is the U.S. government's official web portal to all federal, state and local government web resources and services.